createdAt,value
2017-12-09T00:00:56.613Z,7.00
2017-12-09T00:01:56.531Z,7.80
2017-12-09T00:02:56.518Z,6.70
2017-12-09T00:03:56.501Z,6.90
2017-12-09T00:04:56.477Z,8.00
2017-12-09T00:05:56.461Z,7.30
2017-12-09T00:06:56.498Z,7.10
2017-12-09T00:07:56.425Z,8.10
2017-12-09T00:08:56.412Z,7.80
2017-12-09T00:09:56.397Z,6.70
2017-12-09T00:10:56.377Z,7.40
2017-12-09T00:11:56.363Z,7.40
2017-12-09T00:12:56.372Z,7.90
2017-12-09T00:13:56.330Z,7.90
2017-12-09T00:14:56.345Z,7.90
2017-12-09T00:15:56.281Z,7.50
2017-12-09T00:16:56.270Z,7.50
2017-12-09T00:17:56.277Z,8.40
2017-12-09T00:18:56.227Z,7.50
2017-12-09T00:19:56.209Z,8.20
2017-12-09T00:20:56.224Z,8.10
2017-12-09T00:21:56.245Z,8.20
2017-12-09T00:22:56.155Z,8.10
2017-12-09T00:23:56.157Z,7.30
2017-12-09T00:24:56.129Z,7.30
2017-12-09T00:25:56.096Z,7.40
2017-12-09T00:26:56.085Z,8.10
2017-12-09T00:27:56.128Z,8.40
2017-12-09T00:28:56.052Z,7.70
2017-12-09T00:29:56.040Z,8.70
2017-12-09T00:30:56.019Z,7.60
2017-12-09T00:31:55.989Z,7.90
2017-12-09T00:32:55.968Z,9.00
2017-12-09T00:33:56.007Z,8.10
2017-12-09T00:34:56.005Z,9.10
2017-12-09T00:35:55.925Z,8.10
2017-12-09T00:36:55.901Z,8.30
2017-12-09T00:37:55.889Z,8.80
2017-12-09T00:38:55.861Z,9.30
2017-12-09T00:39:55.860Z,9.30
2017-12-09T00:40:55.867Z,9.50
2017-12-09T00:41:55.817Z,9.10
2017-12-09T00:42:55.798Z,9.30
2017-12-09T00:43:55.838Z,9.60
2017-12-09T00:44:55.760Z,10.30
2017-12-09T00:45:55.746Z,9.50
2017-12-09T00:46:55.728Z,8.80
2017-12-09T00:47:55.697Z,9.70
2017-12-09T00:48:55.689Z,9.30
2017-12-09T00:49:55.715Z,9.30
2017-12-09T00:50:55.652Z,9.90
2017-12-09T00:51:55.639Z,10.20
2017-12-09T00:52:55.602Z,10.50
2017-12-09T00:53:55.601Z,9.60
2017-12-09T00:54:55.587Z,9.50
2017-12-09T00:55:55.612Z,10.40
2017-12-09T00:56:55.543Z,10.20
2017-12-09T00:57:55.522Z,10.20
2017-12-09T00:58:55.515Z,9.80
2017-12-09T00:59:55.501Z,10.70
2017-12-09T01:00:55.484Z,10.80
2017-12-09T01:01:55.499Z,11.00
2017-12-09T01:02:55.443Z,10.70
2017-12-09T01:03:55.411Z,12.10
2017-12-09T01:04:55.396Z,11.10
2017-12-09T01:05:55.386Z,10.70
2017-12-09T01:06:55.420Z,10.30
2017-12-09T01:07:55.336Z,10.40
2017-12-09T01:08:55.313Z,10.80
2017-12-09T01:09:55.309Z,11.00
2017-12-09T01:10:55.296Z,9.90
2017-12-09T01:11:55.275Z,10.10
2017-12-09T01:12:55.290Z,9.10
2017-12-09T01:13:55.268Z,8.90
2017-12-09T01:14:55.208Z,9.20
2017-12-09T01:15:55.243Z,8.30
2017-12-09T01:16:55.171Z,9.00
2017-12-09T01:18:09.729Z,8.60
2017-12-09T01:18:55.211Z,9.70
2017-12-09T01:19:55.127Z,8.50
2017-12-09T01:20:55.115Z,7.70
2017-12-09T01:21:55.089Z,8.80
2017-12-09T01:22:55.067Z,8.00
2017-12-09T01:23:55.060Z,7.60
2017-12-09T01:24:55.089Z,6.70
2017-12-09T01:25:55.016Z,7.50
2017-12-09T01:26:54.996Z,7.10
2017-12-09T01:27:54.982Z,7.40
2017-12-09T01:28:54.965Z,7.70
2017-12-09T01:29:54.940Z,7.50
2017-12-09T01:30:55.031Z,7.50
2017-12-09T01:31:54.913Z,6.70
2017-12-09T01:32:54.896Z,6.90
2017-12-09T01:33:54.876Z,7.20
2017-12-09T01:34:54.852Z,6.30
2017-12-09T01:35:54.844Z,6.80
2017-12-09T01:36:54.870Z,6.60
2017-12-09T01:37:54.801Z,6.90
2017-12-09T01:38:54.776Z,6.40
2017-12-09T01:39:54.762Z,6.90
2017-12-09T01:40:54.749Z,6.60
2017-12-09T01:41:54.724Z,6.70
2017-12-09T01:42:54.772Z,5.50
2017-12-09T01:43:54.691Z,6.10
2017-12-09T01:44:54.669Z,5.50
2017-12-09T01:45:54.653Z,5.30
2017-12-09T01:46:54.635Z,5.60
2017-12-09T01:47:54.626Z,5.20
2017-12-09T01:48:54.648Z,5.10
2017-12-09T01:49:54.578Z,5.10
2017-12-09T01:50:54.572Z,5.30
2017-12-09T01:51:54.548Z,5.00
2017-12-09T01:52:54.522Z,4.90
2017-12-09T01:53:54.508Z,5.30
2017-12-09T01:54:54.546Z,4.70
2017-12-09T01:55:54.481Z,5.10
2017-12-09T01:56:54.455Z,5.30
2017-12-09T01:57:54.446Z,5.10
2017-12-09T01:58:54.413Z,4.80
2017-12-09T01:59:54.400Z,5.00
2017-12-09T02:00:54.412Z,4.80
2017-12-09T02:01:54.367Z,4.50
2017-12-09T02:02:54.344Z,5.20
2017-12-09T02:03:54.333Z,4.70
2017-12-09T02:04:54.312Z,4.50
2017-12-09T02:05:54.348Z,4.90
2017-12-09T02:06:54.275Z,4.70
2017-12-09T02:07:54.261Z,5.00
2017-12-09T02:08:54.235Z,4.50
2017-12-09T02:09:54.215Z,4.70
2017-12-09T02:10:54.207Z,5.00
2017-12-09T02:11:54.222Z,4.90
2017-12-09T02:12:54.178Z,5.50
2017-12-09T02:13:54.141Z,5.20
2017-12-09T02:14:54.125Z,5.60
2017-12-09T02:15:54.113Z,4.90
2017-12-09T02:16:54.086Z,5.10
2017-12-09T02:17:54.115Z,5.10
2017-12-09T02:18:54.054Z,5.30
2017-12-09T02:19:54.036Z,5.90
2017-12-09T02:20:54.024Z,5.00
2017-12-09T02:21:54.037Z,5.70
2017-12-09T02:22:54.046Z,5.30
2017-12-09T02:23:53.973Z,6.00
2017-12-09T02:24:53.947Z,5.90
2017-12-09T02:25:53.927Z,6.10
2017-12-09T02:26:53.906Z,5.40
2017-12-09T02:27:53.889Z,5.40
2017-12-09T02:28:53.904Z,5.70
2017-12-09T02:29:53.852Z,6.30
2017-12-09T02:30:53.891Z,6.40
2017-12-09T02:31:53.815Z,6.10
2017-12-09T02:32:53.818Z,6.30
2017-12-09T02:33:53.782Z,6.50
2017-12-09T02:34:53.762Z,6.20
2017-12-09T02:35:53.748Z,6.70
2017-12-09T02:36:53.758Z,6.30
2017-12-09T02:37:53.706Z,6.90
2017-12-09T02:38:53.696Z,6.40
2017-12-09T02:39:53.667Z,7.40
2017-12-09T02:40:53.645Z,6.70
2017-12-09T02:41:53.706Z,6.90
2017-12-09T02:42:53.616Z,6.70
2017-12-09T02:43:53.598Z,6.90
2017-12-09T02:44:53.577Z,6.90
2017-12-09T02:45:53.558Z,7.70
2017-12-09T02:46:53.548Z,7.60
2017-12-09T02:47:53.565Z,8.00
2017-12-09T02:48:53.510Z,7.90
2017-12-09T02:49:53.488Z,7.50
2017-12-09T02:50:53.466Z,7.70
2017-12-09T02:51:53.453Z,7.30
2017-12-09T02:52:53.495Z,8.50
2017-12-09T02:53:53.413Z,7.80
2017-12-09T02:54:53.392Z,8.10
2017-12-09T02:55:53.375Z,7.80
2017-12-09T02:56:53.365Z,8.00
2017-12-09T02:57:53.340Z,7.90
2017-12-09T02:58:53.363Z,8.30
2017-12-09T02:59:53.330Z,8.40
2017-12-09T03:00:53.330Z,8.40
2017-12-09T03:01:53.264Z,8.00
2017-12-09T03:02:53.246Z,8.90
2017-12-09T03:03:53.233Z,9.20
2017-12-09T03:04:53.207Z,8.40
2017-12-09T03:05:53.232Z,8.30
2017-12-09T03:06:53.183Z,8.60
2017-12-09T03:07:53.156Z,8.50
2017-12-09T03:08:53.143Z,8.50
2017-12-09T03:09:53.118Z,9.00
2017-12-09T03:10:53.166Z,9.20
2017-12-09T03:11:53.091Z,8.80
2017-12-09T03:12:53.072Z,9.30
2017-12-09T03:13:53.045Z,9.00
2017-12-09T03:14:53.026Z,9.40
2017-12-09T03:15:53.060Z,9.70
2017-12-09T03:16:52.998Z,9.40
2017-12-09T03:17:52.974Z,9.90
2017-12-09T03:18:52.955Z,9.40
2017-12-09T03:19:52.948Z,9.60
2017-12-09T03:20:52.921Z,9.70
2017-12-09T03:21:52.958Z,9.30
2017-12-09T03:22:52.886Z,9.50
2017-12-09T03:23:52.867Z,9.50
2017-12-09T03:24:52.861Z,9.60
2017-12-09T03:25:52.827Z,9.60
2017-12-09T03:26:52.805Z,9.80
2017-12-09T03:27:52.856Z,10.10
2017-12-09T03:28:52.776Z,10.20
2017-12-09T03:29:52.760Z,10.30
2017-12-09T03:30:52.735Z,10.70
2017-12-09T03:31:52.723Z,10.00
2017-12-09T03:32:52.693Z,9.50
2017-12-09T03:33:52.721Z,9.90
2017-12-09T03:34:52.659Z,9.60
2017-12-09T03:35:52.645Z,10.00
2017-12-09T03:36:52.628Z,10.80
2017-12-09T03:37:52.611Z,9.60
2017-12-09T03:38:52.624Z,9.50
2017-12-09T03:39:52.571Z,8.60
2017-12-09T03:40:52.560Z,9.60
2017-12-09T03:41:52.540Z,9.40
2017-12-09T03:42:52.521Z,9.40
2017-12-09T03:43:52.563Z,9.70
2017-12-09T03:44:52.484Z,9.50
2017-12-09T03:45:52.461Z,10.20
2017-12-09T03:46:52.442Z,9.40
2017-12-09T03:47:52.428Z,9.60
2017-12-09T03:48:52.418Z,9.70
2017-12-09T03:49:52.425Z,8.90
2017-12-09T03:50:52.377Z,9.00
2017-12-09T03:51:52.412Z,9.10
2017-12-09T03:52:52.337Z,9.10
2017-12-09T03:53:52.316Z,8.90
2017-12-09T03:54:52.304Z,9.00
2017-12-09T03:55:52.280Z,9.30
2017-12-09T03:56:52.269Z,8.50
2017-12-09T03:57:52.346Z,8.40
2017-12-09T03:58:52.231Z,8.90
2017-12-09T03:59:52.210Z,9.10
2017-12-09T04:00:52.200Z,9.70
2017-12-09T04:01:52.170Z,9.40
2017-12-09T04:02:52.150Z,10.60
2017-12-09T04:03:52.181Z,8.80
2017-12-09T04:04:52.126Z,9.70
2017-12-09T04:05:52.102Z,9.00
2017-12-09T04:06:52.080Z,10.20
2017-12-09T04:07:52.090Z,9.90
2017-12-09T04:08:52.042Z,10.60
2017-12-09T04:09:52.091Z,10.60
2017-12-09T04:10:52.016Z,10.40
2017-12-09T04:11:52.003Z,12.00
2017-12-09T04:12:51.977Z,12.50
2017-12-09T04:13:51.969Z,11.80
2017-12-09T04:14:51.938Z,11.30
2017-12-09T04:15:51.970Z,11.30
2017-12-09T04:16:51.895Z,12.70
2017-12-09T04:17:51.880Z,12.60
2017-12-09T04:18:51.869Z,11.80
2017-12-09T04:19:51.845Z,13.80
2017-12-09T04:20:51.825Z,13.30
2017-12-09T04:21:51.877Z,12.20
2017-12-09T04:22:51.789Z,12.90
2017-12-09T04:23:51.772Z,13.50
2017-12-09T04:24:51.756Z,12.90
2017-12-09T04:25:51.739Z,14.60
2017-12-09T04:26:51.717Z,14.30
2017-12-09T04:27:51.758Z,13.60
2017-12-09T04:28:51.682Z,14.10
2017-12-09T04:29:51.656Z,14.10
2017-12-09T04:30:51.646Z,14.30
2017-12-09T04:31:51.626Z,13.80
2017-12-09T04:32:51.604Z,14.40
2017-12-09T04:33:51.628Z,12.50
2017-12-09T04:34:51.566Z,13.70
2017-12-09T04:35:51.550Z,13.60
2017-12-09T04:36:51.595Z,13.20
2017-12-09T04:37:51.512Z,16.00
2017-12-09T04:38:51.506Z,14.40
2017-12-09T04:39:51.485Z,13.10
2017-12-09T04:40:51.458Z,12.60
2017-12-09T04:41:51.528Z,15.50
2017-12-09T04:42:51.501Z,13.70
2017-12-09T04:43:51.407Z,12.70
2017-12-09T04:44:51.392Z,13.20
2017-12-09T04:45:51.375Z,13.80
2017-12-09T04:46:51.347Z,14.50
2017-12-09T04:47:51.328Z,14.30
2017-12-09T04:48:51.388Z,15.10
2017-12-09T04:49:51.293Z,14.10
2017-12-09T04:50:51.289Z,13.30
2017-12-09T04:51:51.258Z,14.30
2017-12-09T04:52:51.242Z,13.90
2017-12-09T04:53:51.223Z,14.10
2017-12-09T04:54:51.272Z,13.60
2017-12-09T04:55:51.180Z,13.70
2017-12-09T04:56:51.170Z,14.10
2017-12-09T04:57:51.142Z,13.80
2017-12-09T04:58:51.118Z,12.40
2017-12-09T04:59:51.110Z,13.40
2017-12-09T05:00:51.144Z,12.40
2017-12-09T05:01:51.082Z,12.80
2017-12-09T05:02:51.060Z,13.00
2017-12-09T05:03:51.034Z,12.80
2017-12-09T05:04:51.025Z,13.60
2017-12-09T05:05:51.054Z,13.60
2017-12-09T05:06:50.986Z,13.30
2017-12-09T05:07:50.956Z,12.90
2017-12-09T05:08:50.944Z,14.40
2017-12-09T05:09:50.941Z,14.30
2017-12-09T05:10:50.903Z,12.80
2017-12-09T05:11:50.955Z,13.70
2017-12-09T05:12:50.871Z,13.70
2017-12-09T05:13:50.855Z,14.90
2017-12-09T05:14:50.840Z,15.40
2017-12-09T05:15:50.827Z,14.20
2017-12-09T05:16:50.805Z,14.70
2017-12-09T05:17:50.853Z,14.50
2017-12-09T05:18:50.766Z,14.50
2017-12-09T05:19:50.750Z,14.40
2017-12-09T05:20:50.767Z,14.30
2017-12-09T05:21:50.708Z,13.40
2017-12-09T05:22:50.701Z,14.40
2017-12-09T05:23:50.741Z,15.20
2017-12-09T05:24:50.657Z,15.00
2017-12-09T05:25:50.639Z,15.90
2017-12-09T05:26:50.616Z,15.70
2017-12-09T05:27:50.612Z,16.70
2017-12-09T05:28:50.576Z,16.70
2017-12-09T05:29:50.600Z,14.80
2017-12-09T05:30:50.537Z,16.60
2017-12-09T05:31:50.583Z,16.60
2017-12-09T05:32:50.501Z,16.20
2017-12-09T05:33:50.495Z,18.00
2017-12-09T05:34:50.472Z,17.70
2017-12-09T05:35:50.471Z,19.00
2017-12-09T05:36:50.429Z,17.20
2017-12-09T05:37:50.461Z,18.50
2017-12-09T05:38:50.396Z,18.10
2017-12-09T05:39:50.385Z,19.10
2017-12-09T05:40:50.390Z,18.90
2017-12-09T05:41:50.408Z,19.60
2017-12-09T05:42:50.326Z,20.10
2017-12-09T05:43:50.319Z,19.40
2017-12-09T05:44:50.290Z,19.20
2017-12-09T05:45:50.264Z,19.80
2017-12-09T05:46:50.245Z,21.30
2017-12-09T05:47:50.298Z,20.70
2017-12-09T05:48:50.200Z,20.90
2017-12-09T05:49:50.188Z,22.90
2017-12-09T05:50:50.191Z,22.10
2017-12-09T05:51:50.162Z,20.80
2017-12-09T05:52:50.126Z,21.20
2017-12-09T05:53:50.157Z,21.10
2017-12-09T05:54:50.100Z,21.40
2017-12-09T05:55:50.084Z,20.60
2017-12-09T05:56:50.127Z,20.40
2017-12-09T05:57:50.037Z,21.00
2017-12-09T05:58:50.024Z,21.70
2017-12-09T05:59:50.022Z,22.60
2017-12-09T06:00:49.994Z,22.40
2017-12-09T06:01:49.975Z,23.30
2017-12-09T06:02:50.027Z,23.20
2017-12-09T06:03:49.940Z,23.40
2017-12-09T06:04:49.925Z,22.00
2017-12-09T06:05:49.884Z,23.20
2017-12-09T06:06:49.876Z,22.80
2017-12-09T06:07:49.858Z,22.80
2017-12-09T06:08:49.912Z,20.80
2017-12-09T06:09:49.842Z,24.50
2017-12-09T06:10:49.799Z,21.80
2017-12-09T06:11:49.791Z,23.80
2017-12-09T06:12:49.773Z,22.50
2017-12-09T06:13:49.754Z,22.40
2017-12-09T06:14:49.757Z,23.80
2017-12-09T06:15:49.719Z,22.20
2017-12-09T06:16:49.700Z,23.30
2017-12-09T06:17:49.715Z,22.70
2017-12-09T06:18:49.661Z,22.90
2017-12-09T06:19:49.651Z,20.70
2017-12-09T06:20:49.680Z,22.50
2017-12-09T06:21:49.604Z,22.90
2017-12-09T06:22:49.647Z,21.40
2017-12-09T06:23:49.583Z,23.30
2017-12-09T06:24:49.561Z,22.90
2017-12-09T06:25:49.527Z,24.40
2017-12-09T06:26:49.514Z,23.60
2017-12-09T06:27:49.491Z,24.10
2017-12-09T06:28:49.551Z,24.10
2017-12-09T06:29:49.456Z,26.10
2017-12-09T06:30:49.436Z,25.10
2017-12-09T06:31:49.417Z,25.50
2017-12-09T06:32:49.433Z,27.00
2017-12-09T06:33:49.379Z,26.50
2017-12-09T06:34:49.431Z,27.50
2017-12-09T06:35:49.345Z,30.90
2017-12-09T06:36:49.314Z,27.60
2017-12-09T06:37:49.306Z,28.30
2017-12-09T06:38:49.286Z,31.60
2017-12-09T06:39:49.273Z,31.50
2017-12-09T06:40:49.303Z,30.10
2017-12-09T06:41:49.231Z,29.10
2017-12-09T06:42:49.212Z,31.40
2017-12-09T06:43:49.219Z,32.10
2017-12-09T06:44:49.178Z,33.10
2017-12-09T06:45:49.158Z,34.90
2017-12-09T06:46:49.199Z,33.50
2017-12-09T06:47:49.118Z,31.30
2017-12-09T06:48:49.100Z,33.30
2017-12-09T06:49:49.078Z,33.50
2017-12-09T06:50:49.101Z,34.80
2017-12-09T06:51:49.053Z,35.10
2017-12-09T06:52:49.050Z,32.70
2017-12-09T06:53:49.005Z,31.90
2017-12-09T06:54:48.979Z,26.90
2017-12-09T06:55:48.993Z,29.20
2017-12-09T06:56:48.954Z,28.80
2017-12-09T06:57:48.933Z,27.80
2017-12-09T06:58:48.975Z,25.50
2017-12-09T06:59:48.915Z,25.90
2017-12-09T07:00:48.898Z,28.20
2017-12-09T07:01:48.860Z,24.90
2017-12-09T07:02:48.836Z,26.60
2017-12-09T07:03:48.818Z,26.20
2017-12-09T07:04:48.837Z,23.10
2017-12-09T07:05:48.818Z,23.80
2017-12-09T07:06:48.771Z,22.20
2017-12-09T07:07:48.759Z,22.70
2017-12-09T07:08:48.724Z,22.50
2017-12-09T07:09:48.710Z,22.90
2017-12-09T07:10:48.745Z,22.70
2017-12-09T07:11:48.685Z,23.10
2017-12-09T07:12:48.651Z,23.10
2017-12-09T07:13:48.643Z,25.10
2017-12-09T07:14:48.618Z,22.30
2017-12-09T07:15:48.606Z,22.50
2017-12-09T07:16:48.635Z,21.20
2017-12-09T07:17:48.567Z,20.60
2017-12-09T07:18:48.544Z,21.20
2017-12-09T07:19:48.527Z,22.70
2017-12-09T07:20:48.512Z,23.10
2017-12-09T07:21:48.484Z,23.50
2017-12-09T07:22:48.540Z,22.30
2017-12-09T07:23:48.457Z,23.40
2017-12-09T07:24:48.430Z,22.70
2017-12-09T07:25:48.411Z,25.30
2017-12-09T07:26:48.410Z,24.90
2017-12-09T07:27:48.384Z,18.60
2017-12-09T07:28:48.430Z,18.20
2017-12-09T07:29:48.343Z,18.20
2017-12-09T07:30:48.337Z,18.70
2017-12-09T07:31:48.307Z,18.90
2017-12-09T07:32:48.300Z,15.80
2017-12-09T07:33:48.272Z,15.90
2017-12-09T07:34:48.307Z,15.70
2017-12-09T07:35:48.226Z,15.80
2017-12-09T07:36:48.311Z,15.50
2017-12-09T07:37:48.219Z,14.60
2017-12-09T07:38:48.178Z,15.40
2017-12-09T07:39:48.159Z,14.80
2017-12-09T07:40:48.191Z,16.90
2017-12-09T07:41:48.138Z,15.20
2017-12-09T07:42:48.103Z,17.00
2017-12-09T07:43:48.098Z,15.60
2017-12-09T07:44:48.076Z,15.60
2017-12-09T07:45:48.103Z,15.80
2017-12-09T07:46:48.034Z,16.20
2017-12-09T07:47:48.024Z,17.10
2017-12-09T07:48:48.002Z,15.80
2017-12-09T07:49:47.986Z,14.80
2017-12-09T07:50:47.953Z,15.30
2017-12-09T07:51:47.973Z,15.10
2017-12-09T07:52:48.006Z,15.50
2017-12-09T07:53:47.924Z,15.80
2017-12-09T07:54:47.902Z,14.60
2017-12-09T07:55:47.880Z,16.40
2017-12-09T07:56:47.913Z,15.50
2017-12-09T07:57:47.834Z,16.50
2017-12-09T07:58:47.814Z,15.30
2017-12-09T07:59:47.805Z,15.10
2017-12-09T08:00:47.784Z,15.90
2017-12-09T08:01:47.762Z,16.40
2017-12-09T08:02:47.795Z,16.90
2017-12-09T08:03:47.724Z,18.40
2017-12-09T08:04:47.727Z,16.70
2017-12-09T08:05:47.677Z,17.60
2017-12-09T08:06:47.665Z,17.30
2017-12-09T08:07:47.666Z,15.80
2017-12-09T08:08:47.658Z,18.80
2017-12-09T08:09:47.611Z,17.90
2017-12-09T08:10:47.590Z,17.50
2017-12-09T08:11:47.577Z,18.00
2017-12-09T08:12:47.606Z,18.80
2017-12-09T08:13:47.544Z,17.20
2017-12-09T08:14:47.515Z,19.10
2017-12-09T08:15:47.498Z,18.20
2017-12-09T08:16:47.486Z,19.60
2017-12-09T08:17:47.464Z,17.60
2017-12-09T08:18:48.440Z,17.50
2017-12-09T08:19:48.239Z,17.60
2017-12-09T08:20:47.420Z,16.60
2017-12-09T08:21:47.447Z,16.80
2017-12-09T08:22:47.880Z,16.30
2017-12-09T08:23:47.358Z,17.10
2017-12-09T08:24:48.031Z,16.00
2017-12-09T08:25:48.076Z,16.40
2017-12-09T08:26:47.854Z,16.70
2017-12-09T08:27:47.512Z,16.60
2017-12-09T08:28:47.260Z,16.30
2017-12-09T08:29:47.248Z,16.40
2017-12-09T08:30:47.245Z,17.00
2017-12-09T08:31:47.234Z,17.50
2017-12-09T08:32:47.187Z,17.90
2017-12-09T08:33:47.224Z,18.50
2017-12-09T08:34:47.158Z,17.90
2017-12-09T08:35:47.222Z,17.90
2017-12-09T08:36:47.122Z,18.80
2017-12-09T08:37:47.109Z,18.50
2017-12-09T08:38:47.124Z,17.90
2017-12-09T08:39:47.066Z,18.60
2017-12-09T08:40:47.052Z,18.10
2017-12-09T08:41:47.104Z,18.60
2017-12-09T08:42:47.033Z,18.60
2017-12-09T08:43:46.999Z,19.70
2017-12-09T08:44:46.973Z,19.60
2017-12-09T08:45:46.968Z,20.20
2017-12-09T08:46:46.948Z,18.70
2017-12-09T08:47:46.991Z,20.10
2017-12-09T08:48:46.906Z,19.40
2017-12-09T08:49:46.954Z,20.90
2017-12-09T08:50:46.869Z,21.50
2017-12-09T08:51:46.901Z,20.70
2017-12-09T08:52:46.832Z,21.90
2017-12-09T08:53:46.869Z,21.20
2017-12-09T08:54:46.791Z,22.60
2017-12-09T08:55:46.802Z,22.20
2017-12-09T08:56:46.758Z,23.00
2017-12-09T08:57:46.742Z,25.30
2017-12-09T08:58:46.731Z,24.60
2017-12-09T08:59:46.777Z,22.80
2017-12-09T09:00:46.698Z,24.30
2017-12-09T09:01:46.665Z,24.40
2017-12-09T09:02:46.669Z,26.10
2017-12-09T09:03:46.632Z,23.90
2017-12-09T09:04:47.329Z,25.90
2017-12-09T09:05:46.704Z,26.30
2017-12-09T09:06:46.579Z,27.30
2017-12-09T09:07:46.569Z,27.50
2017-12-09T09:08:46.644Z,26.70
2017-12-09T09:09:46.549Z,26.00
2017-12-09T09:10:46.619Z,27.40
2017-12-09T09:11:47.144Z,26.80
2017-12-09T09:12:46.477Z,26.00
2017-12-09T09:13:46.465Z,27.60
2017-12-09T09:14:46.486Z,28.00
2017-12-09T09:15:46.448Z,27.30
2017-12-09T09:16:46.407Z,27.80
2017-12-09T09:17:46.398Z,29.90
2017-12-09T09:18:46.378Z,27.60
2017-12-09T09:19:47.045Z,27.20
2017-12-09T09:20:46.362Z,30.80
2017-12-09T09:21:46.315Z,27.90
2017-12-09T09:22:46.287Z,26.50
2017-12-09T09:23:46.273Z,28.50
2017-12-09T09:24:46.270Z,27.00
2017-12-09T09:25:46.283Z,28.80
2017-12-09T09:26:46.222Z,30.00
2017-12-09T09:27:46.209Z,26.60
2017-12-09T09:28:46.189Z,27.20
2017-12-09T09:29:46.171Z,25.40
2017-12-09T09:30:46.152Z,27.50
2017-12-09T09:31:46.214Z,27.50
2017-12-09T09:32:46.215Z,29.60
2017-12-09T09:33:47.084Z,27.80
2017-12-09T09:34:46.080Z,27.00
2017-12-09T09:35:46.065Z,29.00
2017-12-09T09:36:46.047Z,26.90
2017-12-09T09:37:46.073Z,27.40
2017-12-09T09:38:46.016Z,28.10
2017-12-09T09:39:45.991Z,26.10
2017-12-09T09:40:46.014Z,26.40
2017-12-09T09:41:45.946Z,29.90
2017-12-09T09:42:46.065Z,27.00
2017-12-09T09:43:46.986Z,28.20
2017-12-09T09:44:45.905Z,27.80
2017-12-09T09:45:45.879Z,27.20
2017-12-09T09:46:45.856Z,26.90
2017-12-09T09:47:45.844Z,27.00
2017-12-09T09:48:45.938Z,25.70
2017-12-09T09:49:45.810Z,25.30
2017-12-09T09:50:45.789Z,26.00
2017-12-09T09:51:45.778Z,27.80
2017-12-09T09:52:45.766Z,26.80
2017-12-09T09:53:45.732Z,27.00
2017-12-09T09:54:45.793Z,26.00
2017-12-09T09:55:45.701Z,28.70
2017-12-09T09:56:45.714Z,26.50
2017-12-09T09:57:45.665Z,26.00
2017-12-09T09:58:45.639Z,27.20
2017-12-09T09:59:45.644Z,25.40
2017-12-09T10:00:45.652Z,24.30
2017-12-09T10:01:46.047Z,25.60
2017-12-09T10:02:45.586Z,26.70
2017-12-09T10:03:46.398Z,25.90
2017-12-09T10:04:45.538Z,26.40
2017-12-09T10:05:45.523Z,26.20
2017-12-09T10:06:45.533Z,26.00
2017-12-09T10:07:45.479Z,25.50
2017-12-09T10:08:45.485Z,24.30
2017-12-09T10:09:45.488Z,25.90
2017-12-09T10:10:46.100Z,27.20
2017-12-09T10:11:45.416Z,27.30
2017-12-09T10:12:45.470Z,25.70
2017-12-09T10:13:45.408Z,26.00
2017-12-09T10:14:45.364Z,26.10
2017-12-09T10:15:45.347Z,25.50
2017-12-09T10:16:45.424Z,25.00
2017-12-09T10:17:45.324Z,26.80
2017-12-09T10:18:45.355Z,26.20
2017-12-09T10:19:45.282Z,24.80
2017-12-09T10:20:45.271Z,27.40
2017-12-09T10:21:45.248Z,26.10
2017-12-09T10:22:45.229Z,27.30
2017-12-09T10:23:45.212Z,26.00
2017-12-09T10:24:45.237Z,25.20
2017-12-09T10:25:45.184Z,26.10
2017-12-09T10:26:45.894Z,25.50
2017-12-09T10:27:45.947Z,25.10
2017-12-09T10:28:45.120Z,23.30
2017-12-09T10:29:45.165Z,25.40
2017-12-09T10:30:45.083Z,26.90
2017-12-09T10:31:45.068Z,25.10
2017-12-09T10:32:45.043Z,24.30
2017-12-09T10:33:45.031Z,26.30
2017-12-09T10:34:45.032Z,24.40
2017-12-09T10:35:45.040Z,25.30
2017-12-09T10:36:44.978Z,24.90
2017-12-09T10:37:45.020Z,23.90
2017-12-09T10:38:44.946Z,23.80
2017-12-09T10:39:46.824Z,24.10
2017-12-09T10:40:44.893Z,24.00
2017-12-09T10:41:44.904Z,23.10
2017-12-09T10:42:45.498Z,23.20
2017-12-09T10:43:44.894Z,23.30
2017-12-09T10:44:44.891Z,22.70
2017-12-09T10:45:44.819Z,21.80
2017-12-09T10:46:44.818Z,22.20
2017-12-09T10:47:44.780Z,22.80
2017-12-09T10:48:44.966Z,21.30
2017-12-09T10:49:44.822Z,21.60
2017-12-09T10:50:44.739Z,22.60
2017-12-09T10:51:44.718Z,21.90
2017-12-09T10:52:44.707Z,20.80
2017-12-09T10:53:44.678Z,20.60
2017-12-09T10:54:44.661Z,18.60
2017-12-09T10:55:44.701Z,20.80
2017-12-09T10:56:44.625Z,20.40
2017-12-09T10:57:44.625Z,20.50
2017-12-09T10:58:44.588Z,21.40
2017-12-09T10:59:44.633Z,21.20
2017-12-09T11:00:44.567Z,20.00
2017-12-09T11:01:44.551Z,21.10
2017-12-09T11:02:44.578Z,21.60
2017-12-09T11:03:44.501Z,20.50
2017-12-09T11:04:44.488Z,21.10
2017-12-09T11:05:44.499Z,21.60
2017-12-09T11:06:44.464Z,21.80
2017-12-09T11:07:44.438Z,21.00
2017-12-09T11:08:44.426Z,20.90
2017-12-09T11:09:44.496Z,20.70
2017-12-09T11:10:45.808Z,21.20
2017-12-09T11:11:44.583Z,21.10
2017-12-09T11:12:44.349Z,20.60
2017-12-09T11:13:44.946Z,20.00
2017-12-09T11:14:44.316Z,21.00
2017-12-09T11:15:44.476Z,20.50
2017-12-09T11:16:44.893Z,19.70
2017-12-09T11:17:44.293Z,20.60
2017-12-09T11:18:44.247Z,20.30
2017-12-09T11:19:44.225Z,20.50
2017-12-09T11:20:44.220Z,20.50
2017-12-09T11:21:44.263Z,19.30
2017-12-09T11:22:44.171Z,21.00
2017-12-09T11:23:44.178Z,20.60
2017-12-09T11:24:44.146Z,20.80
2017-12-09T11:25:44.116Z,19.30
2017-12-09T11:26:44.101Z,18.20
2017-12-09T11:27:44.122Z,19.30
2017-12-09T11:28:44.079Z,19.20
2017-12-09T11:29:44.052Z,19.40
2017-12-09T11:30:44.039Z,18.80
2017-12-09T11:31:44.079Z,18.30
2017-12-09T11:32:43.993Z,18.60
2017-12-09T11:33:43.985Z,19.60
2017-12-09T11:34:44.785Z,19.70
2017-12-09T11:35:43.950Z,19.20
2017-12-09T11:36:53.049Z,18.80
2017-12-09T11:37:43.909Z,19.00
2017-12-09T11:38:50.980Z,18.40
2017-12-09T11:39:46.056Z,18.60
2017-12-09T11:40:43.956Z,17.50
2017-12-09T11:41:43.826Z,18.60
2017-12-09T11:42:43.807Z,17.50
2017-12-09T11:43:43.828Z,17.80
2017-12-09T11:44:43.774Z,18.60
2017-12-09T11:45:43.756Z,18.60
2017-12-09T11:46:43.739Z,20.50
2017-12-09T11:47:43.728Z,17.70
2017-12-09T11:48:43.732Z,18.20
2017-12-09T11:49:43.683Z,18.30
2017-12-09T11:50:43.671Z,18.40
2017-12-09T11:51:43.664Z,17.80
2017-12-09T11:52:43.635Z,16.80
2017-12-09T11:53:43.693Z,17.90
2017-12-09T11:54:43.858Z,18.80
2017-12-09T11:55:43.595Z,17.20
2017-12-09T11:56:43.608Z,18.30
2017-12-09T11:57:43.566Z,18.20
2017-12-09T11:58:43.604Z,18.20
2017-12-09T11:59:43.589Z,18.40
2017-12-09T12:00:43.504Z,18.70
2017-12-09T12:01:43.499Z,19.50
2017-12-09T12:02:43.503Z,19.40
2017-12-09T12:03:43.459Z,17.70
2017-12-09T12:04:43.427Z,17.50
2017-12-09T12:05:43.487Z,19.20
2017-12-09T12:06:43.415Z,18.80
2017-12-09T12:07:43.399Z,18.10
2017-12-09T12:08:43.384Z,17.40
2017-12-09T12:09:43.348Z,17.70
2017-12-09T12:10:43.507Z,16.30
2017-12-09T12:11:43.348Z,16.80
2017-12-09T12:12:43.306Z,16.40
2017-12-09T12:13:43.305Z,16.70
2017-12-09T12:14:43.255Z,17.90
2017-12-09T12:15:43.246Z,16.60
2017-12-09T12:16:43.276Z,16.90
2017-12-09T12:17:43.280Z,16.00
2017-12-09T12:18:43.308Z,16.30
2017-12-09T12:19:43.182Z,16.90
2017-12-09T12:20:43.151Z,17.80
2017-12-09T12:21:43.567Z,16.20
2017-12-09T12:22:43.140Z,16.00
2017-12-09T12:23:43.179Z,15.90
2017-12-09T12:24:43.089Z,17.30
2017-12-09T12:25:43.098Z,16.30
2017-12-09T12:26:43.202Z,17.20
2017-12-09T12:27:43.070Z,15.90
2017-12-09T12:28:43.025Z,16.30
2017-12-09T12:29:43.043Z,16.60
2017-12-09T12:30:43.849Z,17.20
2017-12-09T12:31:42.954Z,16.00
2017-12-09T12:32:42.934Z,15.40
2017-12-09T12:33:42.920Z,15.10
2017-12-09T12:34:42.921Z,15.30
2017-12-09T12:35:42.940Z,15.80
2017-12-09T12:36:42.869Z,15.60
2017-12-09T12:37:42.859Z,15.30
2017-12-09T12:38:42.829Z,15.00
2017-12-09T12:39:42.825Z,14.80
2017-12-09T12:40:42.802Z,15.50
2017-12-09T12:41:42.857Z,14.60
2017-12-09T12:42:42.769Z,14.00
2017-12-09T12:43:42.754Z,14.50
2017-12-09T12:44:42.756Z,14.40
2017-12-09T12:45:42.726Z,14.50
2017-12-09T12:46:43.695Z,14.60
2017-12-09T12:47:42.733Z,14.10
2017-12-09T12:48:43.230Z,15.00
2017-12-09T12:49:42.644Z,15.30
2017-12-09T12:50:42.647Z,14.90
2017-12-09T12:51:42.612Z,13.80
2017-12-09T12:52:42.600Z,14.90
2017-12-09T12:53:42.633Z,15.30
2017-12-09T12:54:42.566Z,14.50
2017-12-09T12:55:42.545Z,14.10
2017-12-09T12:56:42.527Z,13.80
2017-12-09T12:57:42.515Z,14.90
2017-12-09T12:58:42.489Z,15.20
2017-12-09T12:59:42.711Z,15.00